Grand Rapids, MI

3:38 PM EST on March 05, 2015 (GMT -0500)
Ottawa Hills | Change Station
CLOSE
Current Station
Personal Weather Station
Location: Grand Rapids, MI
Elevation: 791 ft
Nearby Weather Stations

Elev 791 ft 42.95 °N, 85.63 °W | Updated 2 seconds ago

Overcast
Overcast
18.1 °F
Feels Like 18 °F
N
0.9
Wind Variable Wind from NNW
Gusts 2.5 mph

Today
High -- | Low -- °F
--% Chance of Precip.
Yesterday
High -- | Low -- °F
Precip. -- in
7:12 AM 6:36 PM
Full, 100% visible
Pressure 30.45 in
Visibility 10.0 miles
Clouds Mostly Cloudy 3800 ft
Windchill 18 °F
Dew Point -6 °F
Humidity 34%
Rainfall in
Snow Depth Not available.
UV 2.0 out of 12
Pollen .40 out of 12
Air Quality Not available.
Flu Activity Not available.
METAR KGRR 051953Z 30007KT 10SM BKN038 M08/M17 A3040 RMK AO2 SLP312 T10831172

More Conditions Fewer Conditions

Pressure 30.45 in
Visibility 10.0 miles
Clouds Mostly Cloudy 3800 ft
Windchill 18 °F
Dew Point -6 °F
Humidity 34%
Rainfall in
Snow Depth Not available.
UV 2.0 out of 12
Pollen .40 out of 12
Air Quality Not available.
Flu Activity Not available.
METAR KGRR 051953Z 30007KT 10SM BKN038 M08/M17 A3040 RMK AO2 SLP312 T10831172

More Conditions Fewer Conditions

10-Day Weather Forecast

Almanac

Astronomy

Mar. 05, 2015 Rise Set
Actual Time
Civil Twilight
Nautical Twilight
Astronomical Twilight
Moon
Length of Visible Light
Length of Day
Tomorrow will be .
, % of the Moon is Illuminated

Today's Extremes

State Highs State Lows

Community

WunderPhotos

Upload Photos

1,802,952 photos uploaded!

WunderBlogs® & News

Nearby

Air Quality

  Air Quality AQ Index Pollutant
Not available.

Snow Depth

Station Depth Elevation

Earthquake Activity

City Distance Mag. Time & Date
Minimum magnitude displayed is 2.5.

Coastal Water Temperatures

Place Temperature

Nearby Weather Stations